• Join FlightAware (Why Join?)
  • Login
  • US Flag 
05:42AM EDT


 

Airport Tracker/Info


-or-


 

Live Flight TrackerFlight Track Log ✈ AWE1600 ✈ 18-Apr-2013 ✈ KBDL - KPHL

Flight Track Log - Related Links

Times and Time Zones

All times are in EDT time to prevent confusion due to time zone crossing. See the AWE1600 flight status page for this flight to view local times or setup timezone preferences in your user account.

Time Position Orientation Groundspeed Altitude Reporting Facility
EDT Latitude Longitude Course Direction KTS MPH feet Rate Location/Type
07:06AM 41.9478 -72.6775 180° South 162 186 1,000  Level Boston Center
07:07AM 41.9647 -72.5992 74° East 188 216 3,200 2,520 Climbing Boston Center
07:08AM 41.9481 -72.5183 105° East 226 260 6,300 3,000 Climbing Boston Center
07:09AM 41.5811 -72.4550 132° Southeast  Level FlightAware Approximate
07:09AM 41.8772 -72.4875 162° South 239 275 9,300  Level Boston Center
07:10AM 41.5167 -72.3501 129° Southeast  Level FlightAware Approximate
07:10AM 41.7981 -72.4594 165° South 295 339 11,400  Level Boston Center
07:11AM 41.4154 -72.3470 173° South  Level FlightAware Approximate
07:11AM 41.6875 -72.4206 165° South 362 417 14,300  Level Boston Center
07:12AM 41.3144 -72.3333 180° South  Level FlightAware Approximate
07:12AM 41.5939 -72.3956 169° South 386 444 17,000  Level Boston Center
07:13AM 41.4939 -72.3986 181° South 391 450 18,800 1,500 Climbing Boston Center
07:14AM 41.3625 -72.4097 184° South 402 463 20,000 540 Climbing Boston Center
07:15AM 41.2686 -72.4925 214° Southwest 390 449 19,900  Descending Boston Center
07:16AM 41.1792 -72.5753 215° Southwest 408 470 20,000  Climbing Boston Center
07:17AM 41.0789 -72.6547 211° Southwest 428 493 20,000  Level Boston Center
07:18AM 40.9914 -72.7206 210° Southwest 405 466 20,000  Level Boston Center
07:19AM 40.9097 -72.7833 210° Southwest 372 428 20,000  Level Boston Center
07:20AM 40.8431 -72.8353 211° Southwest 358 412 20,000  Level Boston Center
07:21AM 40.7342 -72.9139 209° Southwest 348 400 20,000  Level Boston Center
07:22AM 40.6486 -72.9817 211° Southwest 348 400 20,000  Level Boston Center
07:24AM 40.5586 -73.0464 209° Southwest 361 415 20,000  Level Boston Center
07:25AM 40.3703 -73.1956 211° Southwest 368 423 20,000  Level New York Center
07:26AM 40.2792 -73.2631 209° Southwest 368 423 20,000 -660 Level New York Center
07:28AM 40.1806 -73.3003 196° South 368 423 18,700 -1,200 Descending New York Center
07:28AM 40.0797 -73.3344 195° South 374 430 17,700 -1,320 Descending New York Center
07:29AM 39.9908 -73.3961 208° Southwest 366 421 16,200 -840 Descending New York Center
07:31AM 39.9344 -73.4889 232° Southwest 352 405 16,000 -600 Descending New York Center
07:31AM 39.8717 -73.5919 232° Southwest 358 412 15,100 -960 Descending New York Center
07:32AM 39.8067 -73.6919 230° Southwest 364 419 14,100 -720 Descending New York Center
07:33AM 39.7497 -73.7833 231° Southwest 366 421 13,900 -120 Descending Washington Center
07:34AM 39.6947 -73.8711 231° Southwest 360 414 13,900  Level Washington Center
07:35AM 39.6336 -73.9694 231° Southwest 360 414 13,900 60 Level Washington Center
07:36AM 39.5925 -74.0308 229° Southwest 355 409 14,000 60 Climbing FAA TRACON SMA TRACON (SMA)
07:36AM 39.5736 -74.0597 230° Southwest 356 410 14,000  Level FAA TRACON SMA TRACON (SMA)
07:37AM 39.5492 -74.0989 231° Southwest 353 406 14,000  Level FAA TRACON SMA TRACON (SMA)
07:37AM 39.5336 -74.1275 235° Southwest 355 409 14,000  Level FAA TRACON SMA TRACON (SMA)
07:37AM 39.5244 -74.1686 254° West 354 407 14,000  Level FAA TRACON SMA TRACON (SMA)
07:38AM 39.5253 -74.2183 271° West 359 413 14,000 -300 Level FAA TRACON SMA TRACON (SMA)
07:38AM 39.5264 -74.2578 272° West 354 407 13,800 -1,200 Descending FAA TRACON SMA TRACON (SMA)
07:38AM 39.5267 -74.2975 271° West 355 409 13,200 -2,280 Descending FAA TRACON SMA TRACON (SMA)
07:39AM 39.5281 -74.3447 272° West 357 411 12,300 -2,580 Descending FAA TRACON SMA TRACON (SMA)
07:39AM 39.5281 -74.3856 270° West 355 409 11,500 -2,280 Descending FAA TRACON SMA TRACON (SMA)
07:39AM 39.5286 -74.4244 271° West 353 406 10,800 -1,980 Descending FAA TRACON SMA TRACON (SMA)
07:40AM 39.5292 -74.4719 271° West 347 399 10,200 -1,080 Descending FAA TRACON SMA TRACON (SMA)
07:40AM 39.5300 -74.5069 272° West 327 376 10,100 -300 Descending FAA TRACON SMA TRACON (SMA)
07:40AM 39.5311 -74.5375 273° West 294 338 10,000 -300 Descending FAA TRACON SMA TRACON (SMA)
07:41AM 39.5314 -74.5767 271° West 273 314 9,900 -1,080 Descending FAA TRACON SMA TRACON (SMA)
07:41AM 39.5319 -74.6058 271° West 265 305 9,300 -1,380 Descending FAA TRACON SMA TRACON (SMA)
07:41AM 39.5331 -74.6344 273° West 266 306 9,000 -480 Descending FAA TRACON SMA TRACON (SMA)
07:42AM 39.5336 -74.6717 271° West 265 305 9,000  Level FAA TRACON SMA TRACON (SMA)
07:42AM 39.5339 -74.7019 271° West 267 307 9,000  Level FAA TRACON SMA TRACON (SMA)
07:42AM 39.5347 -74.7294 272° West 268 308 9,000  Level FAA TRACON SMA TRACON (SMA)
07:43AM 39.5350 -74.7683 271° West 267 307 9,000  Level FAA TRACON SMA TRACON (SMA)
07:43AM 39.5356 -74.7978 271° West 266 306 9,000  Level FAA TRACON SMA TRACON (SMA)
07:43AM 39.5361 -74.8272 271° West 265 305 9,000  Level FAA TRACON SMA TRACON (SMA)
07:44AM 39.5364 -74.8631 271° West 267 307 9,000  Level FAA TRACON SMA TRACON (SMA)
07:44AM 39.5369 -74.8942 271° West 267 307 9,000 -600 Level FAA TRACON SMA TRACON (SMA)
07:44AM 39.5375 -74.9233 271° West 266 306 8,600 -1,800 Descending FAA TRACON SMA TRACON (SMA)
07:45AM 39.5378 -74.9594 271° West 265 305 7,800 -2,100 Descending FAA TRACON SMA TRACON (SMA)
07:45AM 39.5392 -74.9894 273° West 266 306 7,200 -1,800 Descending FAA TRACON SMA TRACON (SMA)
07:45AM 39.5419 -75.0183 277° West 270 311 6,600 -1,680 Descending FAA TRACON SMA TRACON (SMA)
07:46AM 39.5450 -75.0556 276° West 270 311 6,100 -900 Descending FAA TRACON SMA TRACON (SMA)
07:46AM 39.5475 -75.0858 276° West 267 307 6,000 -180 Descending FAA TRACON SMA TRACON (SMA)
07:46AM 39.5494 -75.1153 275° West 267 307 6,000  Level FAA TRACON SMA TRACON (SMA)
07:47AM 39.5519 -75.1450 276° West 267 307 6,000  Level FAA TRACON SMA TRACON (SMA)
07:47AM 39.5547 -75.1819 276° West 268 308 6,000  Level FAA TRACON SMA TRACON (SMA)
07:47AM 39.5572 -75.2097 277° West 263 303 6,000  Level FAA TRACON SMA TRACON (SMA)
07:48AM 39.5683 -75.2372 298° West 278 320 6,000  Level FAA TRACON SMA TRACON (SMA)
07:48AM 39.5836 -75.2686 302° West 268 308 6,000  Level FAA TRACON SMA TRACON (SMA)
07:48AM 39.5958 -75.2947 301° West 272 313 6,000  Level FAA TRACON SMA TRACON (SMA)
07:49AM 39.6075 -75.3192 302° West 261 300 6,000  Level FAA TRACON SMA TRACON (SMA)
07:49AM 39.6197 -75.3478 299° West 234 269 6,000  Level FAA TRACON SMA TRACON (SMA)
07:49AM 39.6264 -75.3706 291° West 222 255 6,000  Level FAA TRACON SMA TRACON (SMA)
07:50AM 39.6339 -75.3942 292° West 226 260 6,000  Level FAA TRACON SMA TRACON (SMA)
07:50AM 39.6433 -75.4231 293° West 226 260 6,000  Level FAA TRACON SMA TRACON (SMA)
07:50AM 39.6506 -75.4461 292° West 224 258 6,000  Level FAA TRACON SMA TRACON (SMA)
07:51AM 39.6581 -75.4692 293° West 226 260 6,000 -480 Level FAA TRACON SMA TRACON (SMA)
07:51AM 39.6764 -75.4853 326° Northwest 235 270 5,700 -1,200 Descending FAA TRACON SMA TRACON (SMA)
07:51AM 39.6967 -75.5000 331° Northwest 242 278 5,200 -1,500 Descending FAA TRACON SMA TRACON (SMA)
07:52AM 39.7150 -75.5125 332° Northwest 240 276 4,700 -1,080 Descending FAA TRACON SMA TRACON (SMA)
07:52AM 39.7372 -75.5283 331° Northwest 237 273 4,500 -780 Descending FAA TRACON SMA TRACON (SMA)
07:52AM 39.7539 -75.5400 332° Northwest 224 258 4,200 -900 Descending FAA TRACON SMA TRACON (SMA)
07:53AM 39.7708 -75.5500 336° Northwest 220 253 3,900 -1,380 Descending FAA TRACON SMA TRACON (SMA)
07:53AM 39.7919 -75.5419 16° North 222 255 3,300 -1,200 Descending FAA TRACON SMA TRACON (SMA)
07:53AM 39.8069 -75.5239 43° Northeast 208 239 3,100 -480 Descending FAA TRACON SMA TRACON (SMA)
07:54AM 39.8142 -75.5042 65° Northeast 194 223 3,000 -180 Descending FAA TRACON SMA TRACON (SMA)
07:54AM 39.8200 -75.4775 74° East 198 228 3,000 -180 Level FAA TRACON SMA TRACON (SMA)
07:54AM 39.8242 -75.4567 75° East 199 229 2,900 -600 Descending FAA TRACON SMA TRACON (SMA)
07:55AM 39.8289 -75.4372 72° East 197 227 2,600 -1,140 Descending FAA TRACON SMA TRACON (SMA)
07:55AM 39.8331 -75.4111 78° East 193 222 2,100 -1,140 Descending FAA TRACON SMA TRACON (SMA)
07:55AM 39.8381 -75.3900 73° East 187 215 1,900 -720 Descending FAA TRACON SMA TRACON (SMA)